Time;durP1;ratioP1;P1;durP2;ratioP2;P2;SDS_P1;SDS_P2;PMS_P1;PMS_P2;Temp;Humidity;BMP_temperature;BMP_pressure;BME280_temperature;BME280_humidity;BME280_pressure;Samples;Min_cycle;Max_cycle;Signal;HPM_P1;HPM_P2
2022/05/29 00:01:03;;;;;;;1.65;1.00;;;;;;;;;;5051988;28;20203;-79
2022/05/29 00:03:31;;;;;;;2.03;1.02;;;;;;;;;;5054356;28;20198;-78
2022/05/29 00:05:59;;;;;;;7.90;1.30;;;;;;;;;;5042830;28;20214;-78
2022/05/29 00:08:27;;;;;;;3.92;1.17;;;;;;;;;;5058893;28;20207;-79
2022/05/29 00:10:54;;;;;;;3.72;1.25;;;;;;;;;;5052633;28;20199;-79
2022/05/29 00:13:21;;;;;;;5.05;1.70;;;;;;;;;;5051058;28;20201;-79
2022/05/29 00:15:48;;;;;;;3.92;1.20;;;;;;;;;;5043499;28;20229;-80
2022/05/29 00:18:15;;;;;;;2.35;1.95;;;;;;;;;;5051947;28;20575;-79
2022/05/29 00:20:44;;;;;;;1.80;1.15;;;;;;;;;;5038952;28;20586;-79
2022/05/29 00:23:11;;;;;;;1.70;0.90;;;;;;;;;;5051048;28;20198;-78
2022/05/29 00:25:39;;;;;;;1.75;1.00;;;;;;;;;;5055666;28;20190;-80
2022/05/29 00:28:07;;;;;;;4.05;1.38;;;;;;;;;;5052619;28;20197;-80
2022/05/29 00:30:34;;;;;;;3.05;0.88;;;;;;;;;;5052560;28;20673;-81
2022/05/29 00:33:01;;;;;;;1.67;1.10;;;;;;;;;;5060727;28;20206;-79
2022/05/29 00:35:28;;;;;;;1.10;1.00;;;;;;;;;;5047015;28;20221;-79
2022/05/29 00:37:56;;;;;;;1.42;1.27;;;;;;;;;;5049955;28;20669;-79
2022/05/29 00:40:30;;;;;;;2.85;1.20;;;;;;;;;;5052401;28;20220;-79
2022/05/29 00:42:57;;;;;;;4.68;1.30;;;;;;;;;;5051781;28;20229;-80
2022/05/29 00:45:24;;;;;;;1.63;1.00;;;;;;;;;;5049175;28;20207;-78
2022/05/29 00:47:52;;;;;;;2.20;1.20;;;;;;;;;;5045849;28;20226;-80
2022/05/29 00:50:21;;;;;;;2.25;1.30;;;;;;;;;;5052806;28;20206;-78
2022/05/29 00:52:48;;;;;;;2.78;1.02;;;;;;;;;;5051510;28;20209;-79
2022/05/29 00:55:19;;;;;;;1.25;1.00;;;;;;;;;;5047359;28;20218;-78
2022/05/29 00:57:48;;;;;;;2.03;0.95;;;;;;;;;;5046324;28;20262;-78
2022/05/29 01:00:16;;;;;;;2.30;1.00;;;;;;;;;;5045632;28;20218;-79
2022/05/29 01:02:44;;;;;;;2.63;0.85;;;;;;;;;;5043698;28;20653;-80
2022/05/29 01:05:13;;;;;;;1.80;1.15;;;;;;;;;;5052743;28;20199;-79
2022/05/29 01:07:40;;;;;;;4.10;1.10;;;;;;;;;;5051710;28;20659;-79
2022/05/29 01:10:08;;;;;;;1.27;1.10;;;;;;;;;;5045636;28;20196;-79
2022/05/29 01:12:41;;;;;;;2.47;1.17;;;;;;;;;;5048401;28;20214;-79
2022/05/29 01:15:12;;;;;;;1.52;1.00;;;;;;;;;;5036548;28;20222;-78
2022/05/29 01:17:50;;;;;;;3.58;1.45;;;;;;;;;;5048308;28;20232;-80
2022/05/29 01:20:35;;;;;;;2.20;1.17;;;;;;;;;;5038659;28;20246;-81
2022/05/29 01:23:19;;;;;;;2.08;1.40;;;;;;;;;;5048801;28;20200;-80
2022/05/29 01:25:54;;;;;;;4.82;1.13;;;;;;;;;;5052159;28;20205;-81
2022/05/29 01:28:36;;;;;;;1.58;0.90;;;;;;;;;;5051536;28;20198;-78
2022/05/29 01:31:07;;;;;;;1.20;0.93;;;;;;;;;;5041353;28;20714;-78
2022/05/29 01:33:39;;;;;;;1.85;1.13;;;;;;;;;;5056210;28;20291;-79
2022/05/29 01:36:10;;;;;;;8.75;1.00;;;;;;;;;;5041068;28;20217;-78
2022/05/29 01:38:40;;;;;;;2.25;1.30;;;;;;;;;;5048770;28;20206;-78
2022/05/29 01:41:09;;;;;;;3.15;1.63;;;;;;;;;;5042482;28;20247;-80
2022/05/29 01:43:39;;;;;;;3.60;1.45;;;;;;;;;;5042827;28;20243;-79
2022/05/29 01:46:07;;;;;;;3.75;1.30;;;;;;;;;;5048421;28;20201;-80
2022/05/29 01:48:43;;;;;;;2.78;1.50;;;;;;;;;;5049823;28;20209;-79
2022/05/29 01:51:14;;;;;;;2.42;1.48;;;;;;;;;;5051420;28;20200;-79
2022/05/29 01:53:42;;;;;;;2.75;1.48;;;;;;;;;;5045506;28;20210;-80
2022/05/29 01:56:14;;;;;;;2.25;1.05;;;;;;;;;;5054243;28;20699;-79
2022/05/29 01:58:46;;;;;;;4.53;1.60;;;;;;;;;;5045804;28;20542;-81
2022/05/29 02:01:13;;;;;;;3.50;1.13;;;;;;;;;;5047719;28;20208;-80
2022/05/29 02:03:44;;;;;;;3.35;1.23;;;;;;;;;;5049372;28;20771;-80
2022/05/29 02:06:12;;;;;;;2.13;1.08;;;;;;;;;;5046810;28;20204;-80
2022/05/29 02:08:41;;;;;;;2.60;1.45;;;;;;;;;;5047544;28;20322;-79
2022/05/29 02:11:09;;;;;;;2.83;1.00;;;;;;;;;;5043164;28;20202;-79
2022/05/29 02:13:41;;;;;;;4.43;1.23;;;;;;;;;;5041380;28;20216;-79
2022/05/29 02:16:11;;;;;;;1.88;1.00;;;;;;;;;;5038929;28;20571;-79
2022/05/29 02:18:41;;;;;;;1.75;1.02;;;;;;;;;;5056385;28;20729;-79
2022/05/29 02:21:10;;;;;;;3.80;1.08;;;;;;;;;;5049665;28;20734;-80
2022/05/29 02:23:38;;;;;;;1.65;0.90;;;;;;;;;;5048059;28;20208;-79
2022/05/29 02:26:06;;;;;;;2.83;1.10;;;;;;;;;;5050884;28;20232;-79
2022/05/29 02:28:36;;;;;;;2.53;1.35;;;;;;;;;;5043136;28;20209;-79
2022/05/29 02:31:13;;;;;;;1.65;1.10;;;;;;;;;;5046435;28;20205;-80
2022/05/29 02:33:44;;;;;;;2.60;1.25;;;;;;;;;;5050929;28;20207;-80
2022/05/29 02:36:22;;;;;;;1.98;1.27;;;;;;;;;;5045094;28;20207;-79
2022/05/29 02:38:56;;;;;;;1.55;0.90;;;;;;;;;;5043694;28;20199;-79
2022/05/29 02:41:25;;;;;;;1.35;1.10;;;;;;;;;;5049561;28;20740;-80
2022/05/29 02:43:55;;;;;;;3.78;1.27;;;;;;;;;;5047355;28;20207;-78
2022/05/29 02:46:27;;;;;;;2.15;1.23;;;;;;;;;;5046679;28;20207;-79
2022/05/29 02:48:58;;;;;;;2.30;1.30;;;;;;;;;;5049789;28;20693;-80
2022/05/29 02:51:28;;;;;;;5.57;1.10;;;;;;;;;;5045187;28;20670;-79
2022/05/29 02:53:55;;;;;;;1.35;1.05;;;;;;;;;;5051039;28;20676;-80
2022/05/29 02:56:22;;;;;;;3.40;1.02;;;;;;;;;;5054842;28;20716;-80
2022/05/29 02:58:52;;;;;;;1.45;1.00;;;;;;;;;;5047047;28;20201;-78
2022/05/29 03:01:21;;;;;;;3.40;1.38;;;;;;;;;;5043434;28;20204;-81
2022/05/29 03:03:54;;;;;;;3.15;1.23;;;;;;;;;;5041331;28;20214;-80
2022/05/29 03:06:28;;;;;;;5.22;1.63;;;;;;;;;;5050762;28;20193;-81
2022/05/29 03:09:03;;;;;;;4.55;1.10;;;;;;;;;;5050221;28;20194;-81
2022/05/29 03:11:36;;;;;;;2.40;1.20;;;;;;;;;;5048375;28;20202;-80
2022/05/29 03:14:06;;;;;;;1.60;1.27;;;;;;;;;;5050701;28;20209;-81
2022/05/29 03:16:37;;;;;;;3.97;1.60;;;;;;;;;;5043077;28;20226;-80
2022/05/29 03:19:13;;;;;;;1.92;1.30;;;;;;;;;;5043057;28;20202;-80
2022/05/29 03:21:45;;;;;;;2.95;1.60;;;;;;;;;;5043218;28;20540;-81
2022/05/29 03:24:18;;;;;;;3.05;1.30;;;;;;;;;;5049960;28;20660;-81
2022/05/29 03:26:49;;;;;;;3.38;1.30;;;;;;;;;;5045662;28;20200;-81
2022/05/29 03:29:19;;;;;;;2.67;1.30;;;;;;;;;;5047156;28;20674;-80
2022/05/29 03:31:46;;;;;;;2.72;1.30;;;;;;;;;;5050475;28;20205;-81
2022/05/29 03:34:15;;;;;;;1.88;1.20;;;;;;;;;;5047142;28;20212;-80
2022/05/29 03:36:45;;;;;;;1.52;1.30;;;;;;;;;;5048415;28;20314;-80
2022/05/29 03:39:12;;;;;;;3.45;1.23;;;;;;;;;;5048274;28;20669;-80
2022/05/29 03:41:43;;;;;;;2.08;1.20;;;;;;;;;;5052310;28;20656;-82
2022/05/29 03:44:10;;;;;;;2.28;1.65;;;;;;;;;;5051409;28;20655;-81
2022/05/29 03:46:39;;;;;;;1.63;1.00;;;;;;;;;;5052979;28;20291;-81
2022/05/29 03:49:06;;;;;;;1.88;1.05;;;;;;;;;;5051755;28;20199;-80
2022/05/29 03:51:35;;;;;;;2.85;1.35;;;;;;;;;;5047212;28;20200;-80
2022/05/29 03:54:02;;;;;;;1.90;1.13;;;;;;;;;;5045923;28;20740;-80
2022/05/29 03:56:30;;;;;;;2.00;1.25;;;;;;;;;;5047852;28;20230;-80
2022/05/29 03:58:57;;;;;;;2.38;1.20;;;;;;;;;;5052490;28;20210;-80
2022/05/29 04:01:24;;;;;;;1.80;1.40;;;;;;;;;;5042918;28;20199;-80
2022/05/29 04:03:53;;;;;;;3.08;1.00;;;;;;;;;;5049586;28;20726;-81
2022/05/29 04:06:20;;;;;;;2.55;1.50;;;;;;;;;;5045347;28;20286;-81
2022/05/29 04:14:18;;;;;;;2.75;1.40;;;;;;;;;;5047424;28;20720;-81
2022/05/29 04:16:45;;;;;;;1.73;1.10;;;;;;;;;;5045355;28;20226;-80
2022/05/29 04:19:12;;;;;;;2.28;1.10;;;;;;;;;;5051014;28;20411;-80
2022/05/29 04:21:39;;;;;;;2.08;1.20;;;;;;;;;;5041591;28;20285;-80
2022/05/29 04:24:08;;;;;;;2.55;1.20;;;;;;;;;;5054018;28;20199;-80
2022/05/29 04:26:36;;;;;;;2.50;1.15;;;;;;;;;;5049509;28;20566;-80
2022/05/29 04:29:03;;;;;;;1.40;1.00;;;;;;;;;;5039865;28;20208;-80
2022/05/29 04:31:31;;;;;;;2.42;1.20;;;;;;;;;;5050942;28;20634;-81
2022/05/29 04:33:57;;;;;;;3.22;1.38;;;;;;;;;;5059230;28;20200;-80
2022/05/29 04:36:24;;;;;;;6.40;1.35;;;;;;;;;;5046897;28;20690;-80
2022/05/29 04:38:51;;;;;;;1.80;1.00;;;;;;;;;;5051492;28;20293;-80
2022/05/29 04:41:25;;;;;;;2.00;1.30;;;;;;;;;;5050619;28;20225;-80
2022/05/29 04:43:52;;;;;;;1.95;1.20;;;;;;;;;;5045771;28;20205;-80
2022/05/29 04:46:19;;;;;;;1.38;1.05;;;;;;;;;;5049919;28;20283;-80
2022/05/29 04:48:46;;;;;;;2.95;1.10;;;;;;;;;;5047779;28;20203;-80
2022/05/29 04:51:13;;;;;;;3.85;1.20;;;;;;;;;;5044022;28;20191;-82
2022/05/29 04:53:40;;;;;;;1.95;1.23;;;;;;;;;;5051341;28;20654;-81
2022/05/29 04:56:09;;;;;;;1.95;1.20;;;;;;;;;;5041882;28;20222;-82
2022/05/29 04:58:38;;;;;;;3.00;1.33;;;;;;;;;;5050351;28;20199;-82
2022/05/29 05:01:05;;;;;;;3.35;1.65;;;;;;;;;;5040769;28;20202;-83
2022/05/29 05:03:32;;;;;;;2.45;1.17;;;;;;;;;;5051848;28;20203;-82
2022/05/29 05:06:00;;;;;;;1.50;1.10;;;;;;;;;;5043874;28;20201;-83
2022/05/29 05:08:27;;;;;;;1.35;1.23;;;;;;;;;;5043033;28;20203;-82
2022/05/29 05:10:54;;;;;;;2.38;1.85;;;;;;;;;;5050621;28;20653;-83
2022/05/29 05:13:21;;;;;;;2.28;1.90;;;;;;;;;;5048055;28;20205;-83
2022/05/29 05:15:49;;;;;;;3.95;1.55;;;;;;;;;;5046702;28;20655;-83
2022/05/29 05:18:16;;;;;;;2.55;1.50;;;;;;;;;;5050798;28;20677;-82
2022/05/29 05:20:43;;;;;;;5.93;1.65;;;;;;;;;;5047865;28;20260;-83
2022/05/29 05:23:10;;;;;;;3.53;1.65;;;;;;;;;;5053600;28;20562;-82
2022/05/29 05:25:38;;;;;;;5.32;1.60;;;;;;;;;;5052965;28;20205;-84
2022/05/29 05:28:06;;;;;;;1.88;1.30;;;;;;;;;;5045566;28;20646;-84
2022/05/29 05:30:33;;;;;;;1.95;1.50;;;;;;;;;;5047285;28;20198;-83
2022/05/29 05:33:02;;;;;;;2.05;1.15;;;;;;;;;;5048150;28;20196;-82
2022/05/29 05:35:29;;;;;;;1.38;1.20;;;;;;;;;;5044779;28;20332;-81
2022/05/29 05:37:56;;;;;;;3.92;1.10;;;;;;;;;;5051179;28;20686;-81
2022/05/29 05:40:23;;;;;;;1.73;1.20;;;;;;;;;;5051712;28;20227;-80
2022/05/29 05:42:51;;;;;;;1.58;1.30;;;;;;;;;;5051698;28;20225;-81
2022/05/29 05:45:18;;;;;;;3.50;2.00;;;;;;;;;;5048929;28;20226;-81
2022/05/29 05:47:45;;;;;;;3.20;1.08;;;;;;;;;;5058786;28;20205;-81
2022/05/29 05:50:15;;;;;;;2.28;1.40;;;;;;;;;;5050074;28;20395;-83
2022/05/29 05:52:42;;;;;;;1.60;1.20;;;;;;;;;;5052511;28;20203;-81
2022/05/29 05:55:11;;;;;;;2.80;1.35;;;;;;;;;;5046880;28;20191;-82
2022/05/29 05:57:38;;;;;;;2.20;1.30;;;;;;;;;;5051873;28;20261;-83
2022/05/29 06:00:06;;;;;;;2.03;1.35;;;;;;;;;;5040520;28;20655;-82
2022/05/29 06:02:34;;;;;;;3.45;1.48;;;;;;;;;;5044149;28;20666;-83
2022/05/29 06:05:01;;;;;;;2.45;1.80;;;;;;;;;;5045170;28;20911;-82
2022/05/29 06:07:29;;;;;;;3.05;1.45;;;;;;;;;;5054210;28;20277;-83
2022/05/29 06:09:56;;;;;;;3.00;1.65;;;;;;;;;;5041862;28;20278;-84
2022/05/29 06:12:23;;;;;;;2.33;1.50;;;;;;;;;;5042979;28;20210;-84
2022/05/29 06:14:50;;;;;;;2.22;1.30;;;;;;;;;;5043705;28;20211;-82
2022/05/29 06:17:18;;;;;;;1.40;0.90;;;;;;;;;;5047434;28;20570;-82
2022/05/29 06:19:45;;;;;;;1.75;1.45;;;;;;;;;;5042488;28;20214;-83
2022/05/29 06:22:12;;;;;;;3.03;1.30;;;;;;;;;;5049425;28;20201;-82
2022/05/29 06:24:40;;;;;;;1.90;1.30;;;;;;;;;;5051228;28;20218;-82
2022/05/29 06:27:07;;;;;;;4.65;1.50;;;;;;;;;;5043400;28;20204;-82
2022/05/29 06:29:34;;;;;;;2.45;1.40;;;;;;;;;;5044379;28;20207;-82
2022/05/29 06:32:03;;;;;;;2.28;1.45;;;;;;;;;;5048296;28;20207;-81
2022/05/29 06:34:30;;;;;;;2.80;1.38;;;;;;;;;;5042498;28;20209;-82
2022/05/29 06:36:57;;;;;;;2.95;1.25;;;;;;;;;;5045870;28;20286;-82
2022/05/29 06:39:24;;;;;;;3.53;1.40;;;;;;;;;;5051156;28;20207;-83
2022/05/29 06:41:53;;;;;;;2.45;1.17;;;;;;;;;;5046531;28;20691;-82
2022/05/29 06:44:20;;;;;;;5.20;1.70;;;;;;;;;;5048914;28;20659;-83
2022/05/29 06:46:47;;;;;;;1.75;1.42;;;;;;;;;;5043688;28;20203;-83
2022/05/29 06:49:14;;;;;;;6.32;1.60;;;;;;;;;;5044463;28;20209;-81
2022/05/29 06:51:41;;;;;;;4.18;1.50;;;;;;;;;;5047103;28;20200;-81
2022/05/29 06:54:08;;;;;;;1.50;1.20;;;;;;;;;;5052629;28;20616;-82
2022/05/29 06:56:35;;;;;;;1.92;1.30;;;;;;;;;;5040311;28;20203;-81
2022/05/29 06:59:06;;;;;;;2.45;1.30;;;;;;;;;;5043884;28;20200;-81
2022/05/29 07:07:18;;;;;;;3.25;1.45;;;;;;;;;;5048603;28;20240;-81
2022/05/29 07:09:45;;;;;;;2.47;1.17;;;;;;;;;;5050920;28;20542;-82
2022/05/29 07:12:13;;;;;;;4.82;1.20;;;;;;;;;;5050232;28;20203;-82
2022/05/29 07:14:43;;;;;;;1.50;1.30;;;;;;;;;;5047380;28;20214;-84
2022/05/29 07:17:11;;;;;;;2.38;1.33;;;;;;;;;;5047533;28;20227;-82
2022/05/29 07:19:40;;;;;;;2.10;1.13;;;;;;;;;;5051973;28;20262;-83
2022/05/29 07:22:07;;;;;;;1.60;1.25;;;;;;;;;;5048590;28;20210;-81
2022/05/29 07:24:36;;;;;;;2.35;1.27;;;;;;;;;;5054157;28;20655;-81
2022/05/29 07:27:03;;;;;;;1.85;1.20;;;;;;;;;;5047255;28;20203;-84
2022/05/29 07:29:30;;;;;;;1.75;1.50;;;;;;;;;;5047010;28;20202;-82
2022/05/29 07:31:58;;;;;;;2.88;1.33;;;;;;;;;;5045300;28;20209;-83
2022/05/29 07:34:26;;;;;;;2.65;1.55;;;;;;;;;;5046319;28;20635;-80
2022/05/29 07:36:53;;;;;;;1.75;1.30;;;;;;;;;;5046515;28;20195;-84
2022/05/29 07:39:20;;;;;;;1.85;1.35;;;;;;;;;;5045418;28;20197;-83
2022/05/29 07:44:32;;;;;;;4.45;1.30;;;;;;;;;;5045234;28;20569;-82
2022/05/29 07:47:00;;;;;;;1.48;1.20;;;;;;;;;;5047735;28;20203;-84
2022/05/29 07:49:27;;;;;;;3.05;1.75;;;;;;;;;;5039564;28;20637;-83
2022/05/29 07:51:55;;;;;;;1.75;1.15;;;;;;;;;;5049301;28;20551;-81
2022/05/29 07:54:25;;;;;;;2.53;1.40;;;;;;;;;;5043970;28;20199;-81
2022/05/29 07:56:52;;;;;;;1.67;1.20;;;;;;;;;;5044412;28;20194;-82
2022/05/29 07:59:20;;;;;;;2.08;1.30;;;;;;;;;;5046440;28;20204;-79
2022/05/29 08:01:47;;;;;;;1.23;1.10;;;;;;;;;;5049850;28;20192;-81
2022/05/29 08:04:16;;;;;;;4.00;1.88;;;;;;;;;;5044604;28;20199;-84
2022/05/29 08:06:43;;;;;;;3.58;1.60;;;;;;;;;;5041237;28;20215;-84
2022/05/29 08:09:10;;;;;;;1.92;1.20;;;;;;;;;;5047191;28;20202;-84
2022/05/29 08:11:38;;;;;;;3.60;1.50;;;;;;;;;;5037970;28;20239;-85
2022/05/29 08:14:05;;;;;;;3.28;1.50;;;;;;;;;;5052150;28;20239;-87
2022/05/29 08:16:39;;;;;;;2.70;1.42;;;;;;;;;;5048441;28;20195;-90
2022/05/29 08:19:07;;;;;;;6.18;2.58;;;;;;;;;;5056717;28;20262;-83
2022/05/29 08:21:35;;;;;;;1.60;1.20;;;;;;;;;;5056432;28;20199;-81
2022/05/29 08:32:16;;;;;;;2.65;1.33;;;;;;;;;;5048195;28;20198;-81
2022/05/29 08:34:43;;;;;;;3.45;1.83;;;;;;;;;;5046829;28;20201;-81
2022/05/29 08:37:12;;;;;;;4.97;1.10;;;;;;;;;;5043749;28;20223;-82
2022/05/29 08:39:39;;;;;;;1.65;0.98;;;;;;;;;;5049718;28;20697;-82
2022/05/29 08:42:07;;;;;;;2.80;1.35;;;;;;;;;;5048632;28;20586;-82
2022/05/29 08:44:41;;;;;;;2.10;1.30;;;;;;;;;;5045139;28;20200;-82
2022/05/29 08:47:09;;;;;;;1.85;1.42;;;;;;;;;;5037383;28;20655;-82
2022/05/29 08:49:39;;;;;;;2.60;1.42;;;;;;;;;;5047230;28;20201;-83
2022/05/29 08:52:20;;;;;;;2.97;1.40;;;;;;;;;;5042037;28;20205;-83
2022/05/29 08:54:49;;;;;;;1.95;1.23;;;;;;;;;;5048363;28;20208;-84
2022/05/29 08:57:25;;;;;;;1.85;1.15;;;;;;;;;;5045821;28;20223;-83
2022/05/29 08:59:54;;;;;;;2.63;1.48;;;;;;;;;;5051276;28;20201;-83
2022/05/29 09:02:25;;;;;;;3.95;1.25;;;;;;;;;;5055119;28;20204;-83
2022/05/29 09:04:56;;;;;;;2.72;1.20;;;;;;;;;;5052399;28;20200;-81
2022/05/29 09:07:25;;;;;;;3.40;1.15;;;;;;;;;;5051591;28;20204;-83
2022/05/29 09:09:54;;;;;;;3.03;1.13;;;;;;;;;;5047656;28;20207;-82
2022/05/29 09:12:23;;;;;;;2.33;1.65;;;;;;;;;;5052174;28;20639;-82
2022/05/29 09:14:52;;;;;;;3.05;1.35;;;;;;;;;;5043602;28;20581;-82
2022/05/29 09:17:23;;;;;;;2.42;1.20;;;;;;;;;;5050600;28;20486;-82
2022/05/29 09:19:53;;;;;;;4.82;1.30;;;;;;;;;;5042951;28;20620;-82
2022/05/29 09:22:23;;;;;;;1.10;0.93;;;;;;;;;;5049501;28;20573;-84
2022/05/29 09:24:58;;;;;;;1.80;1.25;;;;;;;;;;5051313;28;20217;-82
2022/05/29 09:27:26;;;;;;;1.92;1.17;;;;;;;;;;5044864;28;20200;-82
2022/05/29 09:29:53;;;;;;;1.50;1.30;;;;;;;;;;5047735;28;20199;-86
2022/05/29 09:32:22;;;;;;;6.50;1.20;;;;;;;;;;5044939;28;20205;-89
2022/05/29 09:34:56;;;;;;;2.80;1.10;;;;;;;;;;5045385;28;20205;-87
2022/05/29 09:37:27;;;;;;;1.17;1.08;;;;;;;;;;5048271;28;20196;-86
2022/05/29 09:39:58;;;;;;;2.63;1.10;;;;;;;;;;5047468;28;20198;-85
2022/05/29 09:42:27;;;;;;;2.20;1.23;;;;;;;;;;5054883;28;20679;-84
2022/05/29 09:45:06;;;;;;;3.08;1.30;;;;;;;;;;5051588;28;20205;-90
2022/05/29 09:50:18;;;;;;;2.05;1.27;;;;;;;;;;5045463;28;20202;-82
2022/05/29 09:52:45;;;;;;;2.97;1.20;;;;;;;;;;5050912;28;20210;-82
2022/05/29 09:55:22;;;;;;;2.45;1.30;;;;;;;;;;5049899;28;20201;-83
2022/05/29 09:57:52;;;;;;;2.15;0.95;;;;;;;;;;5036094;28;20228;-81
2022/05/29 10:00:26;;;;;;;2.58;1.00;;;;;;;;;;5046933;28;20292;-83
2022/05/29 10:02:53;;;;;;;1.80;0.90;;;;;;;;;;5042874;28;20667;-82
2022/05/29 10:05:26;;;;;;;1.85;1.05;;;;;;;;;;5042980;28;20199;-84
2022/05/29 10:07:54;;;;;;;2.92;1.02;;;;;;;;;;5045686;28;20196;-83
2022/05/29 10:10:33;;;;;;;2.75;1.45;;;;;;;;;;5045676;28;20258;-84
2022/05/29 10:13:01;;;;;;;1.20;0.90;;;;;;;;;;5040967;28;20198;-85
2022/05/29 10:15:36;;;;;;;1.75;0.80;;;;;;;;;;5049008;28;20226;-85
2022/05/29 10:18:05;;;;;;;1.27;1.15;;;;;;;;;;5049118;28;20707;-86
2022/05/29 10:20:33;;;;;;;1.77;1.00;;;;;;;;;;5045965;28;20206;-86
2022/05/29 10:23:04;;;;;;;3.80;1.10;;;;;;;;;;5049407;28;20291;-85
2022/05/29 10:25:34;;;;;;;1.00;0.90;;;;;;;;;;5052235;28;20210;-88
2022/05/29 10:28:02;;;;;;;1.10;0.90;;;;;;;;;;5042424;28;20188;-86
2022/05/29 10:30:31;;;;;;;1.50;0.93;;;;;;;;;;5048352;28;20204;-87
2022/05/29 10:33:03;;;;;;;2.58;1.45;;;;;;;;;;5047911;28;20193;-87
2022/05/29 10:35:32;;;;;;;1.10;0.90;;;;;;;;;;5048553;28;20205;-90
2022/05/29 10:38:13;;;;;;;0.90;0.73;;;;;;;;;;5055071;28;20230;-91
2022/05/29 10:40:43;;;;;;;1.00;0.80;;;;;;;;;;5056805;28;20610;-87
2022/05/29 10:43:10;;;;;;;1.80;1.17;;;;;;;;;;5052448;28;20225;-90
2022/05/29 10:45:42;;;;;;;1.50;1.10;;;;;;;;;;5044642;28;20199;-89
2022/05/29 10:48:14;;;;;;;1.10;0.90;;;;;;;;;;5050955;28;20647;-90
2022/05/29 10:50:50;;;;;;;3.65;1.35;;;;;;;;;;5044360;28;20214;-90
2022/05/29 10:53:21;;;;;;;3.00;1.00;;;;;;;;;;5051226;28;20209;-91
2022/05/29 10:55:56;;;;;;;1.65;0.82;;;;;;;;;;5053180;28;20543;-89
2022/05/29 10:58:39;;;;;;;1.88;0.90;;;;;;;;;;5049132;28;20233;-87
2022/05/29 11:04:02;;;;;;;1.40;1.00;;;;;;;;;;5053574;28;20265;-88
2022/05/29 11:06:50;;;;;;;1.80;1.15;;;;;;;;;;5048631;28;20213;-87
2022/05/29 11:09:35;;;;;;;1.27;1.17;;;;;;;;;;5042115;28;20248;-87
2022/05/29 11:12:09;;;;;;;1.63;0.90;;;;;;;;;;5036662;28;20672;-86
2022/05/29 11:14:44;;;;;;;1.60;1.48;;;;;;;;;;5046516;28;20208;-86
2022/05/29 11:17:16;;;;;;;2.30;1.00;;;;;;;;;;5042063;28;20639;-89
2022/05/29 11:20:01;;;;;;;1.85;1.00;;;;;;;;;;5048172;28;20232;-88
2022/05/29 11:22:39;;;;;;;1.35;1.00;;;;;;;;;;5054743;28;20216;-86
2022/05/29 11:25:21;;;;;;;3.08;1.25;;;;;;;;;;5053857;28;20201;-89
2022/05/29 11:28:04;;;;;;;1.10;0.75;;;;;;;;;;5052201;28;20693;-91
2022/05/29 11:30:35;;;;;;;3.03;1.52;;;;;;;;;;5041451;28;20643;-84
2022/05/29 11:33:14;;;;;;;2.00;1.13;;;;;;;;;;5043508;28;20201;-83
2022/05/29 11:35:55;;;;;;;2.75;1.30;;;;;;;;;;5045930;28;20204;-85
2022/05/29 11:38:31;;;;;;;1.20;0.80;;;;;;;;;;5041831;28;20533;-84
2022/05/29 11:41:01;;;;;;;2.47;0.80;;;;;;;;;;5044693;28;20212;-85
2022/05/29 11:43:32;;;;;;;2.05;1.10;;;;;;;;;;5039949;28;20199;-85
2022/05/29 11:51:42;;;;;;;1.55;0.80;;;;;;;;;;5052190;28;20322;-85
2022/05/29 11:54:13;;;;;;;2.17;0.90;;;;;;;;;;5042851;28;20220;-86
2022/05/29 11:56:42;;;;;;;1.00;0.80;;;;;;;;;;5042306;28;20699;-86
2022/05/29 11:59:16;;;;;;;1.00;0.80;;;;;;;;;;5047551;28;20222;-85
2022/05/29 12:01:44;;;;;;;1.85;1.20;;;;;;;;;;5042916;28;20199;-86
2022/05/29 12:04:14;;;;;;;4.47;0.90;;;;;;;;;;5042855;28;20719;-83
2022/05/29 12:06:44;;;;;;;1.45;1.05;;;;;;;;;;5040161;28;20203;-85
2022/05/29 12:09:14;;;;;;;1.55;1.00;;;;;;;;;;5041379;28;20194;-85
2022/05/29 12:11:44;;;;;;;1.20;0.90;;;;;;;;;;5040667;28;20195;-84
2022/05/29 12:14:15;;;;;;;2.63;1.38;;;;;;;;;;5046972;28;20657;-84
2022/05/29 12:16:44;;;;;;;2.65;0.90;;;;;;;;;;5043242;28;20616;-83
2022/05/29 12:19:14;;;;;;;2.15;1.00;;;;;;;;;;5043123;28;20227;-83
2022/05/29 12:21:45;;;;;;;1.17;0.70;;;;;;;;;;5050682;28;20232;-84
2022/05/29 12:24:14;;;;;;;1.77;1.60;;;;;;;;;;5043010;28;20207;-83
2022/05/29 12:26:43;;;;;;;1.60;1.00;;;;;;;;;;5040723;28;20574;-84
2022/05/29 12:29:14;;;;;;;2.42;1.25;;;;;;;;;;5058069;28;20581;-84
2022/05/29 12:31:44;;;;;;;1.30;0.80;;;;;;;;;;5045439;28;20213;-84
2022/05/29 12:34:16;;;;;;;1.10;0.90;;;;;;;;;;5046047;28;20555;-85
2022/05/29 12:37:10;;;;;;;1.90;1.25;;;;;;;;;;5044101;28;20222;-84
2022/05/29 12:39:45;;;;;;;2.15;0.90;;;;;;;;;;5011373;28;20705;-85
2022/05/29 12:42:20;;;;;;;1.45;0.80;;;;;;;;;;5050960;28;20218;-84
2022/05/29 12:44:53;;;;;;;1.33;0.77;;;;;;;;;;5049541;28;20570;-85
2022/05/29 12:47:29;;;;;;;1.58;1.13;;;;;;;;;;5046541;28;20643;-85
2022/05/29 12:50:17;;;;;;;3.28;1.00;;;;;;;;;;5046005;28;20199;-86
2022/05/29 12:53:00;;;;;;;1.42;0.80;;;;;;;;;;5046832;28;20304;-86
2022/05/29 12:55:35;;;;;;;1.38;0.85;;;;;;;;;;5048399;28;20203;-85
2022/05/29 12:58:12;;;;;;;2.17;1.00;;;;;;;;;;5043084;28;20194;-84
2022/05/29 13:00:48;;;;;;;3.20;1.05;;;;;;;;;;5051032;28;20194;-88
2022/05/29 13:03:35;;;;;;;1.55;1.00;;;;;;;;;;5054403;28;20210;-86
2022/05/29 13:06:16;;;;;;;2.45;1.10;;;;;;;;;;5043014;28;20206;-84
2022/05/29 13:08:54;;;;;;;1.95;0.90;;;;;;;;;;5049207;28;20191;-83
2022/05/29 13:11:23;;;;;;;1.48;0.80;;;;;;;;;;5046924;28;20210;-84
2022/05/29 13:13:53;;;;;;;2.17;0.95;;;;;;;;;;5055060;28;20210;-87
2022/05/29 13:16:22;;;;;;;1.00;0.80;;;;;;;;;;5057617;28;20618;-90
2022/05/29 13:19:17;;;;;;;1.20;0.80;;;;;;;;;;5052831;28;20224;-89
2022/05/29 13:21:54;;;;;;;2.22;0.90;;;;;;;;;;5045889;28;20206;-90
2022/05/29 13:24:23;;;;;;;2.85;0.90;;;;;;;;;;5052951;28;20335;-91
2022/05/29 13:27:05;;;;;;;2.28;1.00;;;;;;;;;;5054941;28;20202;-89
2022/05/29 13:29:39;;;;;;;2.17;1.13;;;;;;;;;;5059824;28;20542;-88
2022/05/29 13:32:27;;;;;;;1.63;1.00;;;;;;;;;;5045953;28;20206;-87
2022/05/29 13:35:16;;;;;;;1.60;1.23;;;;;;;;;;5040352;28;20205;-88
2022/05/29 13:37:45;;;;;;;2.38;0.90;;;;;;;;;;5046167;28;20206;-88
2022/05/29 13:40:33;;;;;;;1.10;0.90;;;;;;;;;;5041686;28;20221;-88
2022/05/29 13:43:16;;;;;;;1.95;1.10;;;;;;;;;;5047875;28;20316;-87
2022/05/29 13:46:05;;;;;;;2.17;1.00;;;;;;;;;;5048780;28;20210;-88
2022/05/29 13:48:32;;;;;;;2.25;0.90;;;;;;;;;;5048703;28;20205;-86
2022/05/29 13:51:05;;;;;;;2.40;1.10;;;;;;;;;;5039318;28;20207;-87
2022/05/29 13:53:35;;;;;;;2.80;1.80;;;;;;;;;;5044262;28;20205;-87
2022/05/29 13:56:04;;;;;;;2.10;1.15;;;;;;;;;;5052102;28;20689;-89
2022/05/29 14:04:06;;;;;;;3.97;1.00;;;;;;;;;;5039731;28;20212;-87
2022/05/29 14:06:37;;;;;;;1.67;1.10;;;;;;;;;;5037897;28;20204;-87
2022/05/29 14:09:07;;;;;;;1.35;1.23;;;;;;;;;;5041833;28;20212;-87
2022/05/29 14:11:45;;;;;;;2.10;0.80;;;;;;;;;;5041600;28;20352;-86
2022/05/29 14:14:33;;;;;;;2.70;1.40;;;;;;;;;;5050290;28;20217;-89
2022/05/29 14:17:02;;;;;;;2.08;0.88;;;;;;;;;;5046764;28;20283;-88
2022/05/29 14:19:48;;;;;;;1.10;0.90;;;;;;;;;;5046316;28;20217;-87
2022/05/29 14:22:27;;;;;;;1.25;0.85;;;;;;;;;;5044140;28;20203;-87
2022/05/29 14:24:59;;;;;;;1.38;0.90;;;;;;;;;;5046685;28;20234;-87
2022/05/29 14:27:35;;;;;;;3.25;1.77;;;;;;;;;;5049169;28;20205;-87
2022/05/29 14:30:23;;;;;;;1.50;0.80;;;;;;;;;;5040212;28;20578;-87
2022/05/29 14:33:01;;;;;;;2.80;0.90;;;;;;;;;;5041675;28;20202;-88
2022/05/29 14:35:36;;;;;;;1.25;1.00;;;;;;;;;;5045531;28;20681;-88
2022/05/29 14:38:13;;;;;;;1.30;0.90;;;;;;;;;;5044918;28;20202;-87
2022/05/29 14:40:43;;;;;;;1.75;0.80;;;;;;;;;;5050243;28;20229;-88
2022/05/29 14:43:11;;;;;;;2.08;0.82;;;;;;;;;;5054227;28;20219;-86
2022/05/29 14:45:39;;;;;;;2.05;0.90;;;;;;;;;;5037520;28;20203;-85
2022/05/29 14:48:09;;;;;;;1.50;1.00;;;;;;;;;;5052784;28;20197;-88
2022/05/29 14:50:41;;;;;;;1.50;0.70;;;;;;;;;;5040493;28;20658;-84
2022/05/29 14:53:10;;;;;;;1.35;1.00;;;;;;;;;;5054264;28;20210;-87
2022/05/29 14:55:43;;;;;;;2.95;1.10;;;;;;;;;;5043145;28;20207;-87
2022/05/29 14:58:13;;;;;;;1.30;0.95;;;;;;;;;;5040618;28;20199;-86
2022/05/29 15:00:41;;;;;;;1.25;0.70;;;;;;;;;;5048653;28;20228;-87
2022/05/29 15:03:10;;;;;;;0.90;0.77;;;;;;;;;;5042591;28;20209;-83
2022/05/29 15:05:39;;;;;;;1.20;0.82;;;;;;;;;;5040038;28;20213;-84
2022/05/29 15:10:58;;;;;;;1.90;0.90;;;;;;;;;;5047032;28;20253;-86
2022/05/29 15:13:28;;;;;;;1.55;1.00;;;;;;;;;;5046242;28;20202;-88
2022/05/29 15:15:59;;;;;;;1.15;0.98;;;;;;;;;;5041993;28;20231;-88
2022/05/29 15:18:29;;;;;;;1.13;0.70;;;;;;;;;;5044329;28;20566;-86
2022/05/29 15:24:11;;;;;;;1.10;0.80;;;;;;;;;;5051260;28;20198;-84
2022/05/29 15:26:41;;;;;;;1.98;0.80;;;;;;;;;;5055037;28;20224;-87
2022/05/29 15:29:12;;;;;;;1.00;0.70;;;;;;;;;;5044685;28;20233;-86
2022/05/29 15:31:40;;;;;;;1.00;0.70;;;;;;;;;;5056708;28;20713;-88
2022/05/29 15:34:26;;;;;;;1.10;1.00;;;;;;;;;;5053516;28;20296;-88
2022/05/29 15:36:59;;;;;;;1.13;0.90;;;;;;;;;;5057538;28;20202;-88
2022/05/29 15:39:28;;;;;;;2.42;0.90;;;;;;;;;;5045853;28;20623;-88
2022/05/29 15:42:04;;;;;;;2.38;1.15;;;;;;;;;;5062736;28;20226;-87
2022/05/29 15:44:39;;;;;;;3.42;0.85;;;;;;;;;;5048522;28;20201;-86
2022/05/29 15:47:23;;;;;;;2.10;0.85;;;;;;;;;;5045170;28;20629;-85
2022/05/29 15:50:05;;;;;;;1.85;0.90;;;;;;;;;;5051235;28;20192;-84